createdAt,value
2019-03-22T00:00:37.809Z,99785.89
2019-03-22T00:03:09.611Z,99782.97
2019-03-22T00:05:40.322Z,99786.35
2019-03-22T00:08:11.423Z,99778.47
2019-03-22T00:10:42.831Z,99792.00
2019-03-22T00:13:13.611Z,99790.51
2019-03-22T00:15:44.626Z,99792.42
2019-03-22T00:18:15.693Z,99790.87
2019-03-22T00:20:46.968Z,99797.25
2019-03-22T00:23:18.073Z,99789.58
2019-03-22T00:25:49.290Z,99793.66
2019-03-22T00:28:20.373Z,99795.02
2019-03-22T00:30:51.514Z,99796.41
2019-03-22T00:33:22.665Z,99794.34
2019-03-22T00:35:53.903Z,99790.03
2019-03-22T00:38:25.418Z,99798.00
2019-03-22T00:40:56.906Z,99796.83
2019-03-22T00:43:27.678Z,99795.72
2019-03-22T00:45:58.787Z,99797.44
2019-03-22T00:48:30.515Z,99792.65
2019-03-22T00:51:01.258Z,99788.39
2019-03-22T00:53:31.989Z,99789.29
2019-03-22T00:56:03.258Z,99789.51
2019-03-22T00:58:33.980Z,99787.67
2019-03-22T01:01:05.238Z,99787.36
2019-03-22T01:03:35.971Z,99786.47
2019-03-22T01:06:07.742Z,99785.42
2019-03-22T01:08:38.874Z,99787.91
2019-03-22T01:11:10.725Z,99788.21
2019-03-22T01:13:41.565Z,99788.05
2019-03-22T01:16:12.311Z,99783.53
2019-03-22T01:18:43.758Z,99782.20
2019-03-22T01:21:14.804Z,99779.39
2019-03-22T01:23:45.619Z,99778.94
2019-03-22T01:26:16.986Z,99777.72
2019-03-22T01:28:48.234Z,99778.81
2019-03-22T01:31:18.982Z,99782.17
2019-03-22T01:33:50.214Z,99781.55
2019-03-22T01:36:21.134Z,99773.72
2019-03-22T01:38:52.319Z,99779.10
2019-03-22T01:41:23.686Z,99781.47
2019-03-22T01:43:54.856Z,99779.27
2019-03-22T01:46:25.630Z,99778.13
2019-03-22T01:48:56.771Z,99773.05
2019-03-22T01:51:27.916Z,99775.08
2019-03-22T01:53:59.015Z,99781.06
2019-03-22T01:56:29.796Z,99788.03
2019-03-22T01:59:00.671Z,99785.05
2019-03-22T02:01:31.637Z,99794.93
2019-03-22T02:04:02.351Z,99789.41
2019-03-22T02:06:33.422Z,99792.63
2019-03-22T02:09:06.120Z,99790.95
2019-03-22T02:11:36.866Z,99791.97
2019-03-22T02:14:07.902Z,99785.86
2019-03-22T02:16:39.631Z,99788.98
2019-03-22T02:19:11.087Z,99793.97
2019-03-22T02:21:44.614Z,99795.86
2019-03-22T02:24:15.403Z,99795.41
2019-03-22T02:26:46.200Z,99790.22
2019-03-22T02:29:16.972Z,99790.56
2019-03-22T02:31:47.765Z,99791.62
2019-03-22T02:34:19.611Z,99792.19
2019-03-22T02:36:50.376Z,99789.13
2019-03-22T02:39:21.787Z,99790.39
2019-03-22T02:41:52.844Z,99790.88
2019-03-22T02:44:23.579Z,99791.19
2019-03-22T02:46:54.365Z,99789.07
2019-03-22T02:49:25.460Z,99787.32
2019-03-22T02:51:56.271Z,99786.92
2019-03-22T02:54:27.437Z,99787.89
2019-03-22T02:56:58.209Z,99787.41
2019-03-22T02:59:29.378Z,99788.98
2019-03-22T03:02:00.559Z,99785.52
2019-03-22T03:04:31.486Z,99786.66
2019-03-22T03:07:02.235Z,99791.30
2019-03-22T03:09:33.050Z,99786.88
2019-03-22T03:12:03.791Z,99789.98
2019-03-22T03:14:34.689Z,99791.39
2019-03-22T03:19:37.160Z,99789.81
2019-03-22T03:22:08.278Z,99785.94
2019-03-22T03:24:39.080Z,99790.25
2019-03-22T03:27:09.831Z,99786.45
2019-03-22T03:29:40.574Z,99788.41
2019-03-22T03:32:11.713Z,99784.47
2019-03-22T03:34:42.514Z,99788.46
2019-03-22T03:37:13.306Z,99796.88
2019-03-22T03:39:49.298Z,99789.41
2019-03-22T03:42:20.528Z,99788.14
2019-03-22T03:44:51.391Z,99792.12
2019-03-22T03:47:22.622Z,99796.52
2019-03-22T03:49:53.472Z,99800.67
2019-03-22T03:52:24.349Z,99800.67
2019-03-22T03:54:55.510Z,99806.78
2019-03-22T03:57:26.242Z,99806.45
2019-03-22T03:59:57.024Z,99806.78
2019-03-22T04:02:28.022Z,99808.17
2019-03-22T04:04:59.874Z,99813.44
2019-03-22T04:07:31.027Z,99807.64
2019-03-22T04:10:01.936Z,99810.81
2019-03-22T04:12:32.883Z,99814.00
2019-03-22T04:15:04.445Z,99810.13
2019-03-22T04:17:35.496Z,99808.88
2019-03-22T04:20:06.672Z,99810.24
2019-03-22T04:22:38.245Z,99806.46
2019-03-22T04:25:09.372Z,99811.85
2019-03-22T04:27:40.162Z,99816.69
2019-03-22T04:30:11.092Z,99813.17
2019-03-22T04:32:41.946Z,99810.94
2019-03-22T04:35:12.663Z,99810.80
2019-03-22T04:37:43.501Z,99809.91
2019-03-22T04:40:22.797Z,99811.56
2019-03-22T04:42:54.088Z,99809.77
2019-03-22T04:45:27.230Z,99809.94
2019-03-22T04:48:04.085Z,99810.59
2019-03-22T04:50:38.288Z,99818.65
2019-03-22T04:53:10.869Z,99810.87
2019-03-22T04:55:44.595Z,99810.16
2019-03-22T04:58:17.307Z,99811.56
2019-03-22T05:00:49.383Z,99813.50
2019-03-22T05:03:21.946Z,99814.41
2019-03-22T05:05:55.738Z,99813.92
2019-03-22T05:08:29.792Z,99825.64
2019-03-22T05:11:03.879Z,99823.96
2019-03-22T05:13:36.110Z,99830.98
2019-03-22T05:16:09.824Z,99825.97
2019-03-22T05:18:44.144Z,99835.05
2019-03-22T05:21:17.320Z,99834.59
2019-03-22T05:23:50.598Z,99838.75
2019-03-22T05:26:22.772Z,99843.33
2019-03-22T05:28:54.033Z,99844.23
2019-03-22T05:32:00.108Z,99847.12
2019-03-22T05:34:30.916Z,99851.31
2019-03-22T05:37:02.722Z,99848.05
2019-03-22T05:39:34.127Z,99848.56
2019-03-22T05:42:04.954Z,99852.59
2019-03-22T05:44:35.763Z,99856.83
2019-03-22T05:47:06.720Z,99862.94
2019-03-22T05:49:37.475Z,99860.59
2019-03-22T05:52:09.519Z,99862.00
2019-03-22T05:54:40.352Z,99860.30
2019-03-22T05:57:13.732Z,99858.70
2019-03-22T05:59:44.507Z,99856.14
2019-03-22T06:02:15.290Z,99861.88
2019-03-22T06:04:46.512Z,99863.20
2019-03-22T06:07:17.680Z,99858.41
2019-03-22T06:09:48.519Z,99862.36
2019-03-22T06:12:19.280Z,99864.87
2019-03-22T06:14:50.051Z,99871.75
2019-03-22T06:17:21.033Z,99869.80
2019-03-22T06:19:52.208Z,99872.75
2019-03-22T06:22:23.675Z,99877.92
2019-03-22T06:24:54.415Z,99871.16
2019-03-22T06:27:25.860Z,99872.30
2019-03-22T06:29:56.640Z,99871.98
2019-03-22T06:32:27.652Z,99870.07
2019-03-22T06:34:58.467Z,99863.97
2019-03-22T06:37:29.984Z,99864.58
2019-03-22T06:40:01.411Z,99866.50
2019-03-22T06:42:32.639Z,99867.57
2019-03-22T06:45:03.763Z,99873.77
2019-03-22T06:47:34.639Z,99873.01
2019-03-22T06:50:07.474Z,99876.08
2019-03-22T06:52:38.834Z,99867.86
2019-03-22T06:55:09.863Z,99872.40
2019-03-22T06:57:40.653Z,99871.13
2019-03-22T07:00:12.827Z,99875.46
2019-03-22T07:02:43.547Z,99869.78
2019-03-22T07:05:14.416Z,99872.05
2019-03-22T07:07:45.537Z,99868.03
2019-03-22T07:10:16.447Z,99866.27
2019-03-22T07:12:47.220Z,99865.80
2019-03-22T07:15:18.417Z,99865.00
2019-03-22T07:17:49.206Z,99863.78
2019-03-22T07:20:21.718Z,99860.30
2019-03-22T07:22:52.424Z,99855.91
2019-03-22T07:25:23.706Z,99858.53
2019-03-22T07:27:55.059Z,99854.24
2019-03-22T07:30:26.205Z,99853.78
2019-03-22T07:32:56.997Z,99855.98
2019-03-22T07:35:27.784Z,99863.95
2019-03-22T07:37:59.030Z,99863.89
2019-03-22T07:40:29.791Z,99856.47
2019-03-22T07:43:00.566Z,99852.12
2019-03-22T07:45:31.697Z,99864.39
2019-03-22T07:48:02.433Z,99856.86
2019-03-22T07:50:33.514Z,99858.52
2019-03-22T07:53:04.426Z,99857.38
2019-03-22T07:55:36.005Z,99853.42
2019-03-22T07:58:07.161Z,99853.55
2019-03-22T08:00:38.305Z,99848.63
2019-03-22T08:03:09.346Z,99851.23
2019-03-22T08:05:50.978Z,99845.92
2019-03-22T08:08:12.989Z,99849.23
2019-03-22T08:10:44.413Z,99846.03
2019-03-22T08:13:15.533Z,99847.20
2019-03-22T08:15:46.438Z,99848.42
2019-03-22T08:18:17.734Z,99853.12
2019-03-22T08:20:48.587Z,99853.89
2019-03-22T08:23:21.198Z,99854.56
2019-03-22T08:25:52.307Z,99846.60
2019-03-22T08:28:23.443Z,99851.51
2019-03-22T08:30:54.214Z,99859.95
2019-03-22T08:33:25.659Z,99853.56
2019-03-22T08:35:56.437Z,99853.88
2019-03-22T08:38:27.246Z,99851.14
2019-03-22T08:40:58.201Z,99849.95
2019-03-22T08:43:29.305Z,99855.98
2019-03-22T08:46:00.369Z,99857.69
2019-03-22T08:48:32.309Z,99844.72
2019-03-22T08:51:03.167Z,99847.34
2019-03-22T08:53:34.586Z,99850.90
2019-03-22T08:56:05.424Z,99845.10
2019-03-22T08:58:37.674Z,99842.77
2019-03-22T09:01:10.165Z,99842.47
2019-03-22T09:03:41.300Z,99840.45
2019-03-22T09:06:12.441Z,99837.05
2019-03-22T09:08:43.679Z,99844.58
2019-03-22T09:11:14.742Z,99847.48
2019-03-22T09:13:45.995Z,99844.62
2019-03-22T09:16:17.710Z,99844.62
2019-03-22T09:18:49.121Z,99834.86
2019-03-22T09:21:20.120Z,99824.36
2019-03-22T09:23:51.658Z,99825.89
2019-03-22T09:26:22.451Z,99824.86
2019-03-22T09:28:53.269Z,99819.88
2019-03-22T09:31:24.226Z,99819.83
2019-03-22T09:33:55.005Z,99815.80
2019-03-22T09:36:26.639Z,99819.09
2019-03-22T09:38:57.598Z,99802.77
2019-03-22T09:41:28.308Z,99807.53
2019-03-22T09:43:59.393Z,99814.01
2019-03-22T09:46:30.195Z,99818.05
2019-03-22T09:49:00.979Z,99812.54
2019-03-22T09:51:32.977Z,99807.30
2019-03-22T09:54:03.847Z,99816.38
2019-03-22T09:56:46.278Z,99807.81
2019-03-22T09:59:07.392Z,99807.81
2019-03-22T10:01:38.965Z,99819.98
2019-03-22T10:04:10.018Z,99816.25
2019-03-22T10:06:41.086Z,99809.25
2019-03-22T10:09:12.175Z,99805.31
2019-03-22T10:11:42.876Z,99805.73
2019-03-22T10:14:13.650Z,99808.37
2019-03-22T10:16:47.338Z,99806.84
2019-03-22T10:19:17.781Z,99809.78
2019-03-22T10:21:49.907Z,99801.90
2019-03-22T10:24:20.649Z,99799.37
2019-03-22T10:26:51.432Z,99798.89
2019-03-22T10:29:22.311Z,99790.97
2019-03-22T10:31:53.156Z,99780.73
2019-03-22T10:34:25.342Z,99791.70
2019-03-22T10:36:56.842Z,99779.74
2019-03-22T10:39:27.702Z,99781.50
2019-03-22T10:41:59.200Z,99783.31
2019-03-22T10:44:30.846Z,99773.73
2019-03-22T10:47:02.191Z,99778.28
2019-03-22T10:49:33.487Z,99778.80
2019-03-22T10:52:04.989Z,99775.59
2019-03-22T10:54:36.065Z,99775.59
2019-03-22T10:57:07.275Z,99767.10
2019-03-22T10:59:38.093Z,99762.74
2019-03-22T11:02:09.203Z,99757.16
2019-03-22T11:04:40.281Z,99759.88
2019-03-22T11:07:12.596Z,99756.50
2019-03-22T11:09:43.777Z,99750.17
2019-03-22T11:12:14.532Z,99748.11
2019-03-22T11:14:45.893Z,99745.58
2019-03-22T11:17:16.721Z,99739.67
2019-03-22T11:19:47.786Z,99741.55
2019-03-22T11:22:18.658Z,99741.01
2019-03-22T11:24:49.459Z,99743.58
2019-03-22T11:27:22.074Z,99746.45
2019-03-22T11:29:52.867Z,99740.81
2019-03-22T11:32:23.751Z,99739.33
2019-03-22T11:34:54.564Z,99742.80
2019-03-22T11:37:25.394Z,99740.25
2019-03-22T11:39:56.519Z,99747.32
2019-03-22T11:42:27.810Z,99737.36
2019-03-22T11:44:59.758Z,99737.47
2019-03-22T11:47:30.464Z,99736.11
2019-03-22T11:50:01.481Z,99734.56
2019-03-22T11:52:32.487Z,99732.72
2019-03-22T11:55:03.596Z,99726.23
2019-03-22T11:57:34.301Z,99723.97
2019-03-22T12:00:08.890Z,99720.23
2019-03-22T12:02:40.094Z,99720.91
2019-03-22T12:05:11.272Z,99721.13
2019-03-22T12:07:41.993Z,99717.91
2019-03-22T12:10:13.677Z,99714.50
2019-03-22T12:12:44.472Z,99705.30
2019-03-22T12:15:17.585Z,99708.90
2019-03-22T12:17:48.456Z,99711.58
2019-03-22T12:20:20.522Z,99698.78
2019-03-22T12:22:51.344Z,99698.57
2019-03-22T12:25:24.446Z,99700.14
2019-03-22T12:27:55.654Z,99692.74
2019-03-22T12:30:26.481Z,99702.02
2019-03-22T12:32:57.258Z,99698.85
2019-03-22T12:35:28.331Z,99696.16
2019-03-22T12:37:59.155Z,99690.55
2019-03-22T12:40:30.112Z,99686.02
2019-03-22T12:43:00.844Z,99687.97
2019-03-22T12:45:33.144Z,99688.07
2019-03-22T12:48:04.594Z,99683.66
2019-03-22T12:50:35.736Z,99685.55
2019-03-22T12:53:06.595Z,99677.88
2019-03-22T12:55:37.799Z,99672.41
2019-03-22T12:58:08.584Z,99670.35
2019-03-22T13:00:39.679Z,99674.73
2019-03-22T13:03:11.391Z,99671.34
2019-03-22T13:05:42.125Z,99673.91
2019-03-22T13:08:12.946Z,99673.91
2019-03-22T13:10:43.759Z,99666.03
2019-03-22T13:13:14.616Z,99666.94
2019-03-22T13:15:45.493Z,99662.50
2019-03-22T13:18:16.299Z,99671.13
2019-03-22T13:20:47.297Z,99661.23
2019-03-22T13:23:18.080Z,99661.35
2019-03-22T13:25:48.867Z,99659.06
2019-03-22T13:28:19.919Z,99662.85
2019-03-22T13:30:51.114Z,99653.08
2019-03-22T13:33:21.835Z,99656.55
2019-03-22T13:35:52.915Z,99657.59
2019-03-22T13:38:23.747Z,99654.94
2019-03-22T13:40:54.810Z,99653.52
2019-03-22T13:43:25.623Z,99644.97
2019-03-22T13:45:56.699Z,99640.56
2019-03-22T13:48:27.833Z,99639.27
2019-03-22T13:50:58.687Z,99636.60
2019-03-22T13:53:29.402Z,99639.76
2019-03-22T13:56:00.342Z,99639.84
2019-03-22T13:58:32.224Z,99635.87
2019-03-22T14:01:03.039Z,99638.89
2019-03-22T14:03:34.083Z,99633.30
2019-03-22T14:06:04.918Z,99639.58
2019-03-22T14:08:35.704Z,99632.72
2019-03-22T14:11:06.483Z,99629.38
2019-03-22T14:13:37.269Z,99629.35
2019-03-22T14:16:08.131Z,99618.38
2019-03-22T14:18:38.938Z,99619.27
2019-03-22T14:21:10.001Z,99619.61
2019-03-22T14:23:40.806Z,99618.14
2019-03-22T14:26:11.677Z,99609.55
2019-03-22T14:28:42.763Z,99613.66
2019-03-22T14:31:13.590Z,99603.40
2019-03-22T14:33:44.374Z,99594.69
2019-03-22T14:36:15.163Z,99610.49
2019-03-22T14:38:46.273Z,99600.32
2019-03-22T14:41:17.568Z,99604.02
2019-03-22T14:43:48.338Z,99599.81
2019-03-22T14:46:19.122Z,99593.42
2019-03-22T14:48:49.935Z,99594.52
2019-03-22T14:51:20.703Z,99592.59
2019-03-22T14:53:51.983Z,99594.45
2019-03-22T14:56:22.880Z,99592.16
2019-03-22T14:58:53.663Z,99586.44
2019-03-22T15:01:24.469Z,99591.44
2019-03-22T15:03:55.232Z,99586.95
2019-03-22T15:06:26.038Z,99581.10
2019-03-22T15:08:57.179Z,99585.03
2019-03-22T15:11:28.096Z,99585.26
2019-03-22T15:14:04.148Z,99578.62
2019-03-22T15:17:12.085Z,99580.81
2019-03-22T15:20:11.403Z,99575.10
2019-03-22T15:22:59.826Z,99575.41
2019-03-22T15:25:43.384Z,99575.85
2019-03-22T15:28:31.810Z,99567.80
2019-03-22T15:31:28.018Z,99571.88
2019-03-22T15:34:27.546Z,99568.65
2019-03-22T15:37:16.361Z,99572.09
2019-03-22T15:40:00.659Z,99569.36
2019-03-22T15:42:31.805Z,99564.82
2019-03-22T15:45:04.145Z,99558.09
2019-03-22T15:47:34.911Z,99548.91
2019-03-22T15:50:07.977Z,99554.70
2019-03-22T15:52:39.041Z,99558.50
2019-03-22T15:55:10.433Z,99560.47
2019-03-22T15:57:41.222Z,99550.28
2019-03-22T16:00:15.445Z,99550.13
2019-03-22T16:02:46.998Z,99544.58
2019-03-22T16:05:18.074Z,99543.43
2019-03-22T16:07:49.184Z,99546.06
2019-03-22T16:10:19.964Z,99541.25
2019-03-22T16:12:51.475Z,99545.38
2019-03-22T16:15:22.616Z,99538.06
2019-03-22T16:17:53.639Z,99530.50
2019-03-22T16:20:24.697Z,99537.13
2019-03-22T16:22:55.844Z,99536.23
2019-03-22T16:25:26.723Z,99540.71
2019-03-22T16:27:57.891Z,99536.41
2019-03-22T16:30:28.612Z,99525.66
2019-03-22T16:33:00.008Z,99529.44
2019-03-22T16:35:30.800Z,99531.09
2019-03-22T16:38:01.876Z,99525.34
2019-03-22T16:40:33.053Z,99534.08
2019-03-22T16:43:04.179Z,99528.84
2019-03-22T16:45:42.652Z,99534.88
2019-03-22T16:48:13.423Z,99537.23
2019-03-22T16:50:44.242Z,99522.47
2019-03-22T16:53:14.931Z,99521.72
2019-03-22T16:55:46.151Z,99517.67
2019-03-22T16:58:17.770Z,99515.47
2019-03-22T17:00:49.947Z,99516.53
2019-03-22T17:03:20.915Z,99517.98
2019-03-22T17:05:51.788Z,99513.75
2019-03-22T17:08:22.636Z,99517.66
2019-03-22T17:10:53.559Z,99511.88
2019-03-22T17:13:24.374Z,99510.33
2019-03-22T17:15:55.224Z,99506.70
2019-03-22T17:18:26.949Z,99504.96
2019-03-22T17:20:58.402Z,99506.97
2019-03-22T17:23:29.542Z,99505.14
2019-03-22T17:26:00.588Z,99502.80
2019-03-22T17:28:31.330Z,99507.71
2019-03-22T17:31:02.428Z,99509.88
2019-03-22T17:33:33.520Z,99509.80
2019-03-22T17:36:05.026Z,99510.42
2019-03-22T17:38:36.228Z,99497.32
2019-03-22T17:41:07.370Z,99502.09
2019-03-22T17:43:38.496Z,99509.74
2019-03-22T17:46:09.279Z,99510.59
2019-03-22T17:48:41.401Z,99508.44
2019-03-22T17:51:12.689Z,99509.19
2019-03-22T17:53:44.214Z,99507.46
2019-03-22T17:56:15.727Z,99509.61
2019-03-22T17:58:47.207Z,99508.86
2019-03-22T18:01:19.059Z,99516.02
2019-03-22T18:03:50.215Z,99514.25
2019-03-22T18:06:21.413Z,99516.75
2019-03-22T18:08:52.193Z,99520.57
2019-03-22T18:11:23.108Z,99518.98
2019-03-22T18:13:54.254Z,99519.66
2019-03-22T18:16:25.500Z,99521.75
2019-03-22T18:18:57.269Z,99520.23
2019-03-22T18:21:28.128Z,99525.53
2019-03-22T18:23:58.874Z,99528.12
2019-03-22T18:26:29.712Z,99533.88
2019-03-22T18:29:01.607Z,99530.70
2019-03-22T18:31:32.330Z,99531.43
2019-03-22T18:34:03.143Z,99531.19
2019-03-22T18:36:34.569Z,99538.72
2019-03-22T18:39:07.756Z,99538.44
2019-03-22T18:41:39.028Z,99539.13
2019-03-22T18:44:09.884Z,99534.98
2019-03-22T18:46:41.524Z,99544.13
2019-03-22T18:49:12.477Z,99550.92
2019-03-22T18:51:43.671Z,99551.99
2019-03-22T18:54:15.246Z,99545.98
2019-03-22T18:56:46.094Z,99545.61
2019-03-22T18:59:17.262Z,99546.88
2019-03-22T19:01:48.460Z,99549.64
2019-03-22T19:04:20.024Z,99550.58
2019-03-22T19:06:50.908Z,99550.40
2019-03-22T19:09:22.111Z,99547.62
2019-03-22T19:11:53.758Z,99545.05
2019-03-22T19:14:26.471Z,99548.91
2019-03-22T19:16:57.380Z,99545.53
2019-03-22T19:19:28.611Z,99553.55
2019-03-22T19:22:00.053Z,99554.36
2019-03-22T19:24:31.139Z,99561.45
2019-03-22T19:27:02.367Z,99558.57
2019-03-22T19:29:33.662Z,99562.38
2019-03-22T19:32:13.266Z,99563.91
2019-03-22T19:34:37.531Z,99561.98
2019-03-22T19:37:08.258Z,99569.48
2019-03-22T19:39:39.629Z,99561.77
2019-03-22T19:42:11.066Z,99564.13
2019-03-22T19:44:43.147Z,99564.48
2019-03-22T19:47:13.977Z,99563.80
2019-03-22T19:49:45.367Z,99562.44
2019-03-22T19:52:16.135Z,99568.77
2019-03-22T19:54:47.207Z,99567.67
2019-03-22T19:57:18.079Z,99561.71
2019-03-22T19:59:49.687Z,99567.20
2019-03-22T20:02:22.053Z,99562.85
2019-03-22T20:05:04.238Z,99567.73
2019-03-22T20:07:27.224Z,99558.79
2019-03-22T20:09:58.128Z,99568.08
2019-03-22T20:12:29.206Z,99571.90
2019-03-22T20:15:00.041Z,99575.06
2019-03-22T20:17:30.877Z,99582.86
2019-03-22T20:20:02.503Z,99587.92
2019-03-22T20:22:33.342Z,99592.14
2019-03-22T20:25:04.200Z,99587.77
2019-03-22T20:27:35.044Z,99590.72
2019-03-22T20:30:07.125Z,99583.68
2019-03-22T20:32:37.932Z,99588.94
2019-03-22T20:35:16.061Z,99587.60
2019-03-22T20:37:42.404Z,99584.08
2019-03-22T20:40:14.978Z,99585.69
2019-03-22T20:42:46.460Z,99585.52
2019-03-22T20:45:24.177Z,99585.70
2019-03-22T20:47:50.234Z,99588.17
2019-03-22T20:50:22.603Z,99595.52
2019-03-22T20:52:54.464Z,99593.61
2019-03-22T20:55:25.264Z,99594.16
2019-03-22T20:57:56.045Z,99591.47
2019-03-22T21:00:27.508Z,99596.89
2019-03-22T21:02:59.279Z,99588.58
2019-03-22T21:05:30.033Z,99591.14
2019-03-22T21:08:01.691Z,99590.92
2019-03-22T21:10:32.915Z,99592.16
2019-03-22T21:13:03.743Z,99590.71
2019-03-22T21:15:34.755Z,99586.71
2019-03-22T21:18:05.600Z,99590.31
2019-03-22T21:20:37.074Z,99589.05
2019-03-22T21:23:08.317Z,99593.16
2019-03-22T21:25:39.710Z,99592.17
2019-03-22T21:28:11.192Z,99592.49
2019-03-22T21:30:41.915Z,99597.41
2019-03-22T21:33:12.738Z,99601.92
2019-03-22T21:35:43.807Z,99602.57
2019-03-22T21:38:15.803Z,99606.07
2019-03-22T21:40:47.230Z,99606.20
2019-03-22T21:43:18.067Z,99607.11
2019-03-22T21:45:49.230Z,99599.06
2019-03-22T21:48:20.046Z,99599.06
2019-03-22T21:50:50.830Z,99607.45
2019-03-22T21:53:22.185Z,99609.16
2019-03-22T21:55:54.283Z,99603.23
2019-03-22T21:58:25.904Z,99604.84
2019-03-22T22:00:56.636Z,99610.67
2019-03-22T22:03:28.680Z,99606.20
2019-03-22T22:05:59.872Z,99604.52
2019-03-22T22:08:31.040Z,99607.97
2019-03-22T22:11:02.530Z,99610.55
2019-03-22T22:13:34.059Z,99605.72
2019-03-22T22:16:05.334Z,99612.77
2019-03-22T22:18:36.648Z,99616.98
2019-03-22T22:21:07.796Z,99621.04
2019-03-22T22:23:38.929Z,99614.48
2019-03-22T22:26:10.523Z,99615.95
2019-03-22T22:28:42.439Z,99619.39
2019-03-22T22:31:13.488Z,99615.48
2019-03-22T22:33:44.641Z,99621.59
2019-03-22T22:36:17.515Z,99619.79
2019-03-22T22:38:48.430Z,99622.83
2019-03-22T22:41:19.269Z,99618.69
2019-03-22T22:43:50.505Z,99622.42
2019-03-22T22:46:21.575Z,99616.09
2019-03-22T22:48:52.352Z,99614.66
2019-03-22T22:51:24.382Z,99622.00
2019-03-22T22:53:55.223Z,99621.42
2019-03-22T22:56:26.590Z,99631.20
2019-03-22T22:58:58.027Z,99623.91
2019-03-22T23:01:29.639Z,99621.88
2019-03-22T23:04:00.909Z,99618.17
2019-03-22T23:06:32.471Z,99615.34
2019-03-22T23:09:03.589Z,99623.47
2019-03-22T23:11:36.295Z,99623.77
2019-03-22T23:14:07.950Z,99619.58
2019-03-22T23:16:39.301Z,99613.78
2019-03-22T23:19:11.453Z,99620.63
2019-03-22T23:21:42.373Z,99623.59
2019-03-22T23:24:13.661Z,99617.31
2019-03-22T23:26:45.027Z,99619.78
2019-03-22T23:29:17.167Z,99618.66
2019-03-22T23:31:49.265Z,99613.92
2019-03-22T23:34:21.425Z,99611.94
2019-03-22T23:36:52.247Z,99608.69
2019-03-22T23:39:23.758Z,99605.91
2019-03-22T23:41:55.322Z,99606.98
2019-03-22T23:44:26.490Z,99608.04
2019-03-22T23:46:57.846Z,99610.75
2019-03-22T23:49:29.498Z,99609.18
2019-03-22T23:52:00.396Z,99613.41
2019-03-22T23:54:31.727Z,99612.55
2019-03-22T23:57:02.963Z,99609.09
2019-03-22T23:59:35.198Z,99617.72
